aviador You're here:

KMHL Decoded Metar

in
Report Time2017-09-26 12:35:00
UTC Time2017-09-26 12:39:12
Flight Rules vfr VFR
Wind300° at 05 kt
W.Decomp.*RWY 27: 4.3 kt HW 2.5 kt RCW
RWY 36: 2.5 kt HW 4.3 kt LCW
W.Rank300° ranks 16
Current wind is below 300° avg. (8.6)
Visibility9999 m
Phenomena:N/A
Clouds:Scattered 080 Hf
Scattered 090 Hf
Expected CloudBase > 400 ft AGL from Temp-Dew spread
CeilingNone
Temp21°C
Dew Point20°C (94% RH)
QNH1016 hPa
Raw Report
KMHL 261235Z AUTO 30005KT 10SM SCT080 SCT090 21/20 A2999 RMK
AO2=

Extra information for KMHL:More info

Social comments